メインページ
METAR-TAF:

METAR-TAF

空港 :

成都双流国際空港

成都, 中華人民共和国

緯度: 30-40N, 経度: 104-01E, 海抜: 508m

現時点の気象観測

当レポートは31分前の14:00(UTC)に作成
変向風 2kt
気温 27°C
湿度 94%
気圧 1003 hPa
視程10km以上
高度4000ftの雲はほとんどない, 積乱雲.
高度4000ftの雲は散在している

METAR: ZUUU 201400Z VRB01MPS 9999 FEW040CB SCT040 27/26 Q1003 NOSIG

時間: 22:31 (14:31 UTC)

予報

当レポートは6時間23分前の08:08(UTC)に作成
予報は20日の 12時(UTC)から 21日の 12時(UTC)まで有効
南西の風 6kt
視程: 5000m
高度5000ftの雲は散在している
20日の 19時(UTC)から 20日の 21時(UTC)まで一時的に
高度3000ftの雲はほとんどない, 積乱雲.
高度3000ftの雲は散在している
激しい雷雨, 小雨

TAF: ZUUU 200808Z 2012/2112 22003MPS 5000 BR SCT050 TX35/2107Z TN25/2022Z TEMPO 2019/2021 -TSRA FEW030CB SCT030

4,000以上の空港の気象観測と天気予報(METAR報とTAF報)

利用可能な観測所は地図上に黄色い丸と赤い丸で示す。

丸の上にカーソルを重ねると観測所名を参照できる。

次にクリックすると気象観測と天気予報を参照できる。

マップの切り替え:黒色「×」印の緑ボタンをクリックして拡大、「-」印の緑ボタンをクリックして縮小、緑色の三角印をクリックして隣りの地図に切り替え


METAR-TAF: